createdAt,value
2018-03-31T00:01:13.109Z,8.65
2018-03-31T00:03:39.863Z,12.98
2018-03-31T00:06:07.277Z,10.00
2018-03-31T00:08:34.083Z,9.18
2018-03-31T00:11:00.562Z,8.90
2018-03-31T00:13:27.047Z,9.43
2018-03-31T00:15:53.708Z,10.45
2018-03-31T00:18:20.239Z,10.15
2018-03-31T00:20:46.726Z,10.85
2018-03-31T00:23:14.086Z,11.38
2018-03-31T00:25:40.732Z,11.32
2018-03-31T00:28:07.229Z,10.00
2018-03-31T00:30:33.779Z,10.68
2018-03-31T00:33:01.062Z,11.07
2018-03-31T00:35:27.533Z,9.60
2018-03-31T00:37:54.153Z,12.23
2018-03-31T00:40:20.631Z,11.25
2018-03-31T00:42:47.126Z,9.13
2018-03-31T00:45:13.801Z,10.00
2018-03-31T00:47:40.332Z,10.10
2018-03-31T00:50:06.813Z,11.45
2018-03-31T00:52:33.551Z,13.25
2018-03-31T00:55:00.788Z,12.95
2018-03-31T00:57:28.074Z,10.98
2018-03-31T00:59:54.745Z,11.88
2018-03-31T01:02:21.210Z,13.10
2018-03-31T01:04:47.692Z,11.85
2018-03-31T01:07:14.496Z,12.82
2018-03-31T01:09:40.994Z,13.95
2018-03-31T01:12:07.490Z,12.20
2018-03-31T01:14:34.201Z,12.85
2018-03-31T01:17:00.682Z,11.75
2018-03-31T01:19:27.580Z,11.77
2018-03-31T01:21:54.261Z,13.75
2018-03-31T01:24:20.752Z,12.88
2018-03-31T01:26:47.391Z,11.68
2018-03-31T01:29:14.082Z,13.48
2018-03-31T01:31:40.562Z,14.77
2018-03-31T01:34:07.123Z,15.70
2018-03-31T01:36:33.810Z,15.70
2018-03-31T01:39:00.302Z,18.08
2018-03-31T01:41:26.823Z,13.73
2018-03-31T01:43:53.458Z,14.93
2018-03-31T01:46:19.947Z,18.48
2018-03-31T01:48:46.409Z,15.60
2018-03-31T01:51:12.951Z,17.15
2018-03-31T01:53:39.491Z,15.15
2018-03-31T01:56:06.178Z,15.50
2018-03-31T01:58:33.635Z,14.57
2018-03-31T02:01:00.869Z,18.87
2018-03-31T02:03:27.399Z,20.42
2018-03-31T02:05:54.162Z,16.73
2018-03-31T02:08:21.447Z,19.98
2018-03-31T02:10:47.934Z,20.55
2018-03-31T02:13:14.448Z,21.05
2018-03-31T02:15:40.936Z,22.05
2018-03-31T02:18:07.468Z,18.70
2018-03-31T02:20:34.106Z,20.80
2018-03-31T02:23:01.324Z,26.12
2018-03-31T02:25:27.831Z,22.87
2018-03-31T02:27:54.506Z,24.25
2018-03-31T02:30:20.991Z,21.10
2018-03-31T02:32:47.522Z,23.95
2018-03-31T02:35:14.109Z,26.17
2018-03-31T02:37:40.930Z,26.75
2018-03-31T02:40:07.460Z,21.83
2018-03-31T02:42:34.104Z,27.35
2018-03-31T02:45:00.579Z,26.15
2018-03-31T02:47:27.802Z,29.12
2018-03-31T02:49:54.413Z,27.08
2018-03-31T02:52:20.998Z,25.80
2018-03-31T02:54:47.472Z,28.38
2018-03-31T02:57:14.883Z,28.38
2018-03-31T02:59:41.404Z,24.63
2018-03-31T03:02:07.896Z,24.45
2018-03-31T03:04:35.215Z,32.75
2018-03-31T03:07:01.729Z,24.30
2018-03-31T03:09:28.290Z,27.98
2018-03-31T03:11:54.957Z,29.60
2018-03-31T03:14:22.223Z,30.02
2018-03-31T03:16:49.500Z,25.95
2018-03-31T03:19:16.052Z,28.92
2018-03-31T03:21:42.584Z,29.08
2018-03-31T03:24:09.056Z,28.33
2018-03-31T03:26:35.698Z,29.58
2018-03-31T03:29:02.190Z,34.67
2018-03-31T03:31:28.674Z,30.42
2018-03-31T03:33:56.067Z,30.48
2018-03-31T03:36:22.621Z,29.60
2018-03-31T03:38:49.141Z,32.22
2018-03-31T03:41:15.701Z,28.77
2018-03-31T03:43:43.020Z,31.12
2018-03-31T03:46:10.294Z,34.47
2018-03-31T03:48:36.826Z,36.55
2018-03-31T03:51:03.348Z,30.60
2018-03-31T03:53:30.611Z,32.70
2018-03-31T03:55:57.267Z,28.70
2018-03-31T03:58:23.755Z,35.42
2018-03-31T04:00:50.226Z,31.98
2018-03-31T04:03:16.909Z,32.85
2018-03-31T04:05:43.394Z,30.88
2018-03-31T04:08:10.253Z,31.65
2018-03-31T04:10:36.997Z,37.50
2018-03-31T04:13:03.512Z,40.08
2018-03-31T04:15:30.039Z,34.05
2018-03-31T04:17:57.291Z,33.95
2018-03-31T04:20:24.501Z,37.40
2018-03-31T04:22:50.975Z,37.20
2018-03-31T04:25:17.549Z,32.75
2018-03-31T04:27:44.085Z,34.53
2018-03-31T04:30:10.571Z,34.08
2018-03-31T04:32:37.085Z,32.03
2018-03-31T04:35:03.563Z,39.25
2018-03-31T04:37:30.833Z,36.03
2018-03-31T04:39:58.106Z,36.30
2018-03-31T04:42:24.607Z,37.58
2018-03-31T04:44:51.822Z,33.58
2018-03-31T04:47:18.544Z,37.47
2018-03-31T04:49:45.030Z,38.03
2018-03-31T04:52:12.300Z,37.33
2018-03-31T04:54:39.617Z,34.53
2018-03-31T04:57:06.089Z,35.38
2018-03-31T04:59:33.314Z,37.97
2018-03-31T05:01:59.972Z,35.85
2018-03-31T05:04:27.296Z,37.35
2018-03-31T05:06:53.815Z,37.15
2018-03-31T05:09:20.461Z,36.47
2018-03-31T05:11:46.980Z,35.08
2018-03-31T05:14:13.495Z,35.72
2018-03-31T05:16:40.147Z,34.72
2018-03-31T05:19:06.686Z,36.97
2018-03-31T05:21:33.207Z,35.08
2018-03-31T05:23:59.899Z,37.45
2018-03-31T05:26:26.408Z,38.10
2018-03-31T05:28:52.934Z,37.70
2018-03-31T05:31:20.007Z,35.13
2018-03-31T05:33:46.508Z,29.55
2018-03-31T05:36:13.045Z,35.75
2018-03-31T05:38:39.587Z,29.25
2018-03-31T05:41:06.068Z,38.50
2018-03-31T05:43:32.537Z,35.72
2018-03-31T05:45:59.108Z,34.58
2018-03-31T05:48:25.592Z,32.30
2018-03-31T05:50:52.082Z,31.48
2018-03-31T05:53:18.754Z,31.00
2018-03-31T05:55:45.248Z,32.03
2018-03-31T05:58:11.726Z,35.95
2018-03-31T06:00:38.396Z,32.38
2018-03-31T06:03:05.623Z,29.00
2018-03-31T06:05:32.163Z,32.35
2018-03-31T06:07:58.930Z,32.63
2018-03-31T06:10:26.191Z,35.03
2018-03-31T06:12:53.436Z,32.67
2018-03-31T06:15:20.885Z,30.95
2018-03-31T06:17:47.441Z,32.65
2018-03-31T06:20:14.709Z,36.55
2018-03-31T06:22:41.336Z,31.60
2018-03-31T06:25:08.550Z,27.25
2018-03-31T06:27:35.033Z,31.55
2018-03-31T06:30:01.562Z,28.05
2018-03-31T06:32:28.805Z,23.83
2018-03-31T06:34:56.021Z,30.48
2018-03-31T06:37:22.614Z,26.90
2018-03-31T06:39:49.821Z,29.27
2018-03-31T06:42:16.331Z,25.70
2018-03-31T06:44:48.956Z,28.65
2018-03-31T06:47:15.439Z,30.70
2018-03-31T06:49:41.990Z,29.75
2018-03-31T06:52:08.498Z,25.40
2018-03-31T06:54:34.982Z,29.52
2018-03-31T06:57:01.458Z,29.65
2018-03-31T06:59:28.721Z,29.52
2018-03-31T07:01:55.242Z,27.55
2018-03-31T07:04:22.466Z,32.50
2018-03-31T07:06:49.222Z,28.30
2018-03-31T07:09:15.689Z,31.45
2018-03-31T07:11:42.171Z,29.15
2018-03-31T07:14:08.836Z,29.33
2018-03-31T07:16:36.092Z,28.00
2018-03-31T07:19:02.573Z,25.98
2018-03-31T07:21:29.262Z,26.80
2018-03-31T07:23:55.742Z,29.87
2018-03-31T07:26:22.227Z,29.00
2018-03-31T07:28:48.920Z,29.12
2018-03-31T07:31:15.413Z,32.10
2018-03-31T07:33:41.876Z,26.62
2018-03-31T07:36:08.582Z,28.50
2018-03-31T07:38:35.063Z,26.30
2018-03-31T07:41:01.542Z,28.95
2018-03-31T07:43:28.194Z,27.48
2018-03-31T07:45:54.712Z,29.98
2018-03-31T07:48:21.238Z,26.12
2018-03-31T07:50:47.761Z,27.58
2018-03-31T07:53:14.233Z,25.48
2018-03-31T07:55:40.708Z,25.88
2018-03-31T07:58:07.427Z,23.70
2018-03-31T08:00:34.679Z,27.10
2018-03-31T08:03:01.893Z,28.00
2018-03-31T08:05:28.675Z,25.62
2018-03-31T08:07:55.927Z,26.70
2018-03-31T08:10:22.440Z,24.50
2018-03-31T08:12:49.082Z,30.12
2018-03-31T08:15:15.569Z,25.33
2018-03-31T08:17:42.047Z,25.08
2018-03-31T08:20:08.724Z,23.27
2018-03-31T08:22:35.943Z,25.52
2018-03-31T08:25:02.410Z,24.90
2018-03-31T08:27:29.783Z,28.48
2018-03-31T08:29:56.325Z,25.83
2018-03-31T08:32:22.789Z,27.73
2018-03-31T08:34:49.354Z,24.83
2018-03-31T08:37:15.883Z,26.05
2018-03-31T08:39:42.366Z,28.00
2018-03-31T08:42:08.994Z,27.98
2018-03-31T08:44:35.492Z,28.23
2018-03-31T08:47:02.055Z,26.15
2018-03-31T08:49:29.475Z,26.17
2018-03-31T08:51:55.959Z,25.85
2018-03-31T08:54:23.179Z,26.12
2018-03-31T08:56:49.888Z,28.02
2018-03-31T08:59:16.375Z,25.27
2018-03-31T09:01:42.861Z,24.92
2018-03-31T09:04:09.547Z,30.00
2018-03-31T09:06:36.117Z,29.87
2018-03-31T09:09:02.647Z,30.98
2018-03-31T09:11:30.034Z,28.65
2018-03-31T09:13:57.296Z,27.55
2018-03-31T09:16:23.765Z,29.95
2018-03-31T09:18:50.511Z,27.60
2018-03-31T09:21:17.739Z,26.85
2018-03-31T09:23:44.258Z,21.75
2018-03-31T09:26:10.924Z,27.00
2018-03-31T09:28:37.431Z,26.50
2018-03-31T09:31:03.911Z,27.25
2018-03-31T09:33:30.720Z,25.37
2018-03-31T09:35:57.197Z,28.07
2018-03-31T09:38:24.418Z,26.55
2018-03-31T09:40:51.082Z,26.50
2018-03-31T09:43:17.558Z,29.00
2018-03-31T09:45:44.033Z,29.23
2018-03-31T09:48:10.713Z,31.12
2018-03-31T09:50:37.276Z,30.75
2018-03-31T09:53:03.745Z,26.83
2018-03-31T09:55:30.255Z,25.52
2018-03-31T09:57:57.087Z,28.90
2018-03-31T10:00:29.564Z,21.85
2018-03-31T10:02:56.074Z,25.37
2018-03-31T10:05:23.337Z,30.42
2018-03-31T10:07:50.068Z,25.60
2018-03-31T10:10:17.283Z,28.05
2018-03-31T10:12:43.784Z,24.40
2018-03-31T10:15:10.468Z,31.30
2018-03-31T10:17:36.976Z,29.77
2018-03-31T10:20:03.449Z,28.83
2018-03-31T10:22:30.058Z,27.95
2018-03-31T10:24:56.583Z,25.35
2018-03-31T10:27:23.057Z,28.25
2018-03-31T10:29:49.600Z,27.80
2018-03-31T10:32:16.077Z,26.48
2018-03-31T10:34:42.599Z,27.33
2018-03-31T10:37:09.232Z,27.55
2018-03-31T10:39:36.502Z,32.30
2018-03-31T10:42:03.310Z,25.62
2018-03-31T10:44:30.062Z,30.67
2018-03-31T10:46:57.343Z,28.52
2018-03-31T10:49:23.814Z,30.48
2018-03-31T10:51:51.223Z,28.20
2018-03-31T10:54:17.718Z,27.85
2018-03-31T10:56:44.202Z,28.10
2018-03-31T10:59:10.815Z,31.65
2018-03-31T11:01:37.285Z,28.42
2018-03-31T11:04:03.761Z,28.50
2018-03-31T11:06:30.278Z,31.35
2018-03-31T11:08:56.794Z,32.95
2018-03-31T11:11:23.264Z,29.27
2018-03-31T11:13:49.888Z,26.25
2018-03-31T11:16:16.368Z,26.65
2018-03-31T11:18:43.581Z,25.90
2018-03-31T11:21:10.905Z,28.95
2018-03-31T11:23:37.425Z,28.67
2018-03-31T11:26:04.638Z,29.65
2018-03-31T11:28:31.386Z,26.58
2018-03-31T11:30:57.911Z,27.30
2018-03-31T11:33:24.400Z,28.00
2018-03-31T11:35:50.939Z,28.05
2018-03-31T11:38:17.429Z,25.27
2018-03-31T11:40:43.961Z,28.62
2018-03-31T11:43:10.647Z,26.50
2018-03-31T11:45:37.872Z,25.92
2018-03-31T11:48:04.351Z,25.33
2018-03-31T11:50:31.015Z,24.60
2018-03-31T11:52:58.305Z,28.00
2018-03-31T11:55:24.788Z,27.23
2018-03-31T11:57:51.311Z,27.10
2018-03-31T12:00:17.838Z,27.20
2018-03-31T12:02:44.320Z,24.65
2018-03-31T12:05:10.998Z,24.52
2018-03-31T12:07:38.217Z,27.70
2018-03-31T12:10:04.713Z,26.67
2018-03-31T12:12:31.420Z,27.17
2018-03-31T12:14:57.906Z,27.85
2018-03-31T12:17:24.391Z,24.12
2018-03-31T12:19:51.057Z,23.55
2018-03-31T12:22:17.573Z,26.17
2018-03-31T12:24:44.101Z,23.38
2018-03-31T12:27:10.797Z,25.75
2018-03-31T12:29:38.011Z,29.60
2018-03-31T12:32:05.276Z,25.17
2018-03-31T12:34:31.999Z,26.17
2018-03-31T12:36:59.254Z,25.88
2018-03-31T12:39:26.485Z,25.98
2018-03-31T12:41:53.119Z,26.35
2018-03-31T12:44:19.744Z,27.20
2018-03-31T12:46:46.236Z,24.87
2018-03-31T12:49:13.598Z,26.37
2018-03-31T12:51:40.117Z,27.77
2018-03-31T12:54:07.374Z,26.60
2018-03-31T12:56:34.857Z,25.27
2018-03-31T12:59:01.755Z,26.25
2018-03-31T13:01:28.994Z,24.70
2018-03-31T13:03:55.762Z,28.45
2018-03-31T13:06:22.986Z,27.55
2018-03-31T13:08:49.521Z,24.65
2018-03-31T13:11:16.367Z,27.65
2018-03-31T13:13:43.022Z,26.73
2018-03-31T13:16:09.575Z,29.48
2018-03-31T13:18:36.235Z,30.05
2018-03-31T13:21:03.467Z,33.00
2018-03-31T13:23:29.947Z,28.83
2018-03-31T13:25:56.463Z,32.97
2018-03-31T13:28:22.937Z,33.45
2018-03-31T13:30:49.415Z,34.05
2018-03-31T13:33:16.073Z,36.38
2018-03-31T13:35:42.563Z,43.75
2018-03-31T13:38:09.063Z,34.40
2018-03-31T13:40:35.635Z,32.88
2018-03-31T13:43:02.115Z,33.17
2018-03-31T13:45:29.388Z,34.53
2018-03-31T13:47:56.092Z,39.00
2018-03-31T13:50:22.624Z,34.60
2018-03-31T13:52:49.102Z,35.55
2018-03-31T13:55:15.788Z,34.17
2018-03-31T13:57:42.272Z,37.00
2018-03-31T14:00:08.751Z,32.42
2018-03-31T14:02:35.436Z,33.78
2018-03-31T14:05:01.922Z,35.28
2018-03-31T14:07:28.407Z,37.47
2018-03-31T14:09:55.779Z,49.90
2018-03-31T14:12:22.279Z,44.92
2018-03-31T14:14:48.759Z,43.10
2018-03-31T14:17:15.443Z,38.28
2018-03-31T14:19:41.959Z,38.10
2018-03-31T14:22:08.452Z,32.00
2018-03-31T14:24:35.725Z,36.13
2018-03-31T14:27:02.222Z,34.78
2018-03-31T14:29:28.700Z,30.73
2018-03-31T14:31:55.458Z,38.63
2018-03-31T14:34:21.942Z,34.67
2018-03-31T14:36:49.188Z,34.08
2018-03-31T14:39:15.864Z,36.92
2018-03-31T20:18:16.486Z,50.10
2018-03-31T20:20:42.971Z,48.47
2018-03-31T20:23:10.235Z,49.72
2018-03-31T20:25:36.770Z,56.83
2018-03-31T20:28:03.245Z,60.63
2018-03-31T20:30:29.766Z,64.68
2018-03-31T20:32:56.298Z,71.80
2018-03-31T20:35:22.813Z,82.30
2018-03-31T20:37:49.305Z,68.78
2018-03-31T20:40:16.285Z,82.18
2018-03-31T20:42:43.491Z,73.95
2018-03-31T20:45:11.032Z,80.85
2018-03-31T20:47:37.608Z,86.25
2018-03-31T20:50:04.124Z,79.97
2018-03-31T20:52:30.608Z,80.72
2018-03-31T20:54:58.003Z,84.37
2018-03-31T20:57:24.476Z,82.70
2018-03-31T20:59:50.958Z,83.62
2018-03-31T21:02:17.627Z,82.30
2018-03-31T21:04:44.115Z,73.97
2018-03-31T21:07:10.602Z,71.25
2018-03-31T21:09:37.391Z,69.22
2018-03-31T21:12:04.621Z,71.12
2018-03-31T21:14:31.106Z,73.22
2018-03-31T21:16:57.942Z,69.87
2018-03-31T21:19:24.485Z,68.40
2018-03-31T21:21:50.969Z,66.32
2018-03-31T21:24:17.635Z,63.83
2018-03-31T21:26:44.896Z,70.55
2018-03-31T21:29:12.146Z,70.60
2018-03-31T21:31:39.421Z,72.15
2018-03-31T21:34:05.951Z,74.43
2018-03-31T21:36:32.422Z,86.97
2018-03-31T21:38:58.926Z,93.60
2018-03-31T21:41:25.387Z,110.03
2018-03-31T21:43:51.864Z,120.43
2018-03-31T21:46:18.502Z,122.15
2018-03-31T21:48:45.725Z,129.15
2018-03-31T21:51:12.242Z,130.15
2018-03-31T21:53:38.938Z,122.50
2018-03-31T21:56:06.201Z,120.45
2018-03-31T21:58:33.460Z,122.57
2018-03-31T22:01:00.813Z,122.10
2018-03-31T22:03:27.326Z,127.47
2018-03-31T22:05:53.807Z,112.10
2018-03-31T22:08:20.422Z,105.60
2018-03-31T22:10:47.634Z,93.55
2018-03-31T22:13:20.092Z,105.28
2018-03-31T22:15:48.648Z,98.68
2018-03-31T22:18:15.336Z,93.37
2018-03-31T22:20:41.967Z,96.25
2018-03-31T22:23:08.628Z,87.95
2018-03-31T22:25:35.142Z,90.85
2018-03-31T22:28:01.669Z,86.57
2018-03-31T22:30:28.282Z,81.37
2018-03-31T22:32:54.811Z,89.40
2018-03-31T22:35:22.043Z,93.70
2018-03-31T22:37:49.419Z,89.45
2018-03-31T22:40:16.638Z,78.28
2018-03-31T22:42:43.114Z,72.28
2018-03-31T22:45:09.708Z,70.30
2018-03-31T22:47:36.175Z,65.47
2018-03-31T22:50:03.393Z,67.85
2018-03-31T22:52:29.956Z,72.80
2018-03-31T22:54:57.173Z,77.28
2018-03-31T22:57:23.653Z,73.80
2018-03-31T22:59:50.213Z,74.28
2018-03-31T23:02:16.749Z,73.03
2018-03-31T23:04:43.272Z,74.50
2018-03-31T23:07:10.541Z,75.68
2018-03-31T23:09:37.081Z,79.60
2018-03-31T23:12:03.617Z,78.60
2018-03-31T23:14:30.312Z,81.60
2018-03-31T23:16:56.828Z,93.25
2018-03-31T23:19:23.348Z,95.53
2018-03-31T23:21:50.029Z,107.72
2018-03-31T23:24:16.511Z,107.00
2018-03-31T23:26:43.000Z,110.47
2018-03-31T23:29:10.409Z,115.25
2018-03-31T23:31:36.870Z,117.05
2018-03-31T23:34:03.346Z,112.82
2018-03-31T23:36:30.702Z,104.70
2018-03-31T23:38:57.921Z,102.20
2018-03-31T23:41:24.453Z,102.45
2018-03-31T23:43:51.108Z,101.53
2018-03-31T23:46:17.612Z,112.90
2018-03-31T23:48:44.087Z,103.87
2018-03-31T23:51:10.820Z,90.25
2018-03-31T23:53:37.286Z,88.65
2018-03-31T23:56:04.552Z,88.70
2018-03-31T23:58:31.065Z,79.62
